Time;durP1;ratioP1;P1;durP2;ratioP2;P2;SDS_P1;SDS_P2;PMS_P1;PMS_P2;Temp;Humidity;BMP_temperature;BMP_pressure;BME280_temperature;BME280_humidity;BME280_pressure;Samples;Min_cycle;Max_cycle;Signal;HPM_P1;HPM_P2
2022/07/03 00:00:35;;;;;;;1.10;1.00;;;;;;;17.20;74.81;98815.41;5048008;28;20228;-50
2022/07/03 00:03:04;;;;;;;2.80;0.97;;;;;;;17.20;74.65;98815.41;5046326;28;20213;-52
2022/07/03 00:05:31;;;;;;;1.57;1.10;;;;;;;17.13;74.98;98822.44;5046178;28;20260;-50
2022/07/03 00:07:58;;;;;;;1.63;1.27;;;;;;;17.05;76.01;98820.75;5046928;28;20217;-51
2022/07/03 00:10:26;;;;;;;4.43;1.20;;;;;;;17.02;76.77;98831.66;5047078;28;21031;-51
2022/07/03 00:12:52;;;;;;;1.63;1.00;;;;;;;16.96;76.92;98829.75;5047077;28;20209;-51
2022/07/03 00:15:19;;;;;;;1.50;1.10;;;;;;;16.85;78.32;98823.16;5047248;28;20586;-50
2022/07/03 00:17:46;;;;;;;3.53;1.23;;;;;;;16.82;79.08;98821.69;5047019;28;20767;-51
2022/07/03 00:20:41;;;;;;;1.77;1.30;;;;;;;16.72;79.51;98815.09;5046586;28;20351;-50
2022/07/03 00:23:10;;;;;;;1.10;0.90;;;;;;;16.59;79.57;98821.03;5046040;28;20437;-51
2022/07/03 00:25:40;;;;;;;2.23;1.30;;;;;;;16.65;81.21;98812.38;5044631;28;20226;-50
2022/07/03 00:28:09;;;;;;;1.23;1.10;;;;;;;16.56;81.44;98824.84;5044412;28;20236;-51
2022/07/03 00:30:36;;;;;;;2.30;1.20;;;;;;;16.53;82.12;98819.97;5046159;28;20221;-52
2022/07/03 00:33:05;;;;;;;1.87;1.10;;;;;;;16.43;82.00;98824.69;5044741;28;20244;-50
2022/07/03 00:35:36;;;;;;;2.07;1.20;;;;;;;16.37;82.82;98816.53;5046797;28;20210;-50
2022/07/03 00:38:04;;;;;;;2.30;1.20;;;;;;;16.48;85.11;98827.59;5045986;28;20218;-51
2022/07/03 00:40:49;;;;;;;2.27;1.00;;;;;;;16.47;84.21;98823.31;5046447;28;20704;-50
2022/07/03 00:43:17;;;;;;;1.33;1.00;;;;;;;16.45;84.54;98817.44;5045547;28;20297;-51
2022/07/03 00:45:47;;;;;;;2.60;1.20;;;;;;;16.40;84.05;98831.16;5046543;28;20225;-52
2022/07/03 00:48:15;;;;;;;2.07;1.03;;;;;;;16.47;84.42;98823.31;5046822;28;21304;-50
2022/07/03 00:50:47;;;;;;;1.30;1.20;;;;;;;16.38;84.84;98818.16;5046137;28;20648;-50
2022/07/03 00:53:19;;;;;;;1.93;0.90;;;;;;;16.33;84.25;98832.91;5046060;28;20224;-50
2022/07/03 00:55:49;;;;;;;2.10;1.20;;;;;;;16.36;85.36;98835.16;5045513;28;20281;-53
2022/07/03 00:58:35;;;;;;;7.73;1.20;;;;;;;16.32;85.68;98837.34;5046261;28;20245;-50
2022/07/03 01:01:03;;;;;;;2.40;1.00;;;;;;;16.33;85.30;98830.25;5045554;28;20223;-51
2022/07/03 01:03:35;;;;;;;2.33;1.10;;;;;;;16.47;85.77;98837.31;5045865;28;20827;-51
2022/07/03 01:06:10;;;;;;;1.20;1.10;;;;;;;16.39;85.30;98829.53;5046097;28;20728;-50
2022/07/03 01:08:43;;;;;;;1.23;1.13;;;;;;;16.42;85.24;98829.16;5044753;28;20232;-50
2022/07/03 01:11:21;;;;;;;1.80;1.27;;;;;;;16.35;85.46;98828.25;5045894;28;20223;-51
2022/07/03 01:14:01;;;;;;;1.43;1.33;;;;;;;16.36;86.41;98830.69;5045731;28;20265;-51
2022/07/03 01:16:35;;;;;;;1.70;1.40;;;;;;;16.36;85.72;98828.06;5045159;28;20762;-51
2022/07/03 01:19:14;;;;;;;2.87;1.00;;;;;;;16.39;85.32;98824.25;5044886;28;20293;-50
2022/07/03 01:21:51;;;;;;;1.73;1.23;;;;;;;16.44;83.70;98827.13;5046030;28;20711;-51
2022/07/03 01:24:43;;;;;;;1.80;1.30;;;;;;;16.32;84.97;98826.78;5034071;28;20787;-51
2022/07/03 01:27:17;;;;;;;1.77;1.50;;;;;;;16.37;85.83;98821.78;5031484;28;20282;-50
2022/07/03 01:29:53;;;;;;;1.50;1.23;;;;;;;16.29;86.99;98819.25;5030938;28;20201;-52
2022/07/03 01:32:25;;;;;;;1.40;1.10;;;;;;;16.21;86.35;98820.19;5033122;28;20680;-52
2022/07/03 01:34:54;;;;;;;2.20;1.40;;;;;;;16.26;86.71;98818.81;5032104;28;20201;-51
2022/07/03 01:37:27;;;;;;;1.87;1.20;;;;;;;16.21;87.54;98808.81;5033396;28;20264;-52
2022/07/03 01:39:56;;;;;;;2.50;1.20;;;;;;;16.23;86.78;98805.03;5033292;28;20665;-51
2022/07/03 01:42:26;;;;;;;1.30;1.20;;;;;;;16.23;87.48;98804.19;5032438;28;20594;-53
2022/07/03 01:44:54;;;;;;;2.60;1.10;;;;;;;16.27;86.99;98797.56;5032245;28;20198;-52
2022/07/03 01:47:23;;;;;;;1.10;1.00;;;;;;;16.33;86.47;98803.91;5033326;28;20248;-51
2022/07/03 01:49:51;;;;;;;3.97;1.23;;;;;;;16.26;86.35;98798.56;5032874;28;20198;-51
2022/07/03 01:52:20;;;;;;;1.63;1.20;;;;;;;16.26;87.07;98792.47;5032798;28;20248;-52
2022/07/03 01:54:49;;;;;;;2.33;1.30;;;;;;;16.26;87.54;98798.56;5040021;28;20196;-51
2022/07/03 01:57:16;;;;;;;1.97;1.43;;;;;;;16.34;87.79;98802.91;5044201;28;20202;-51
2022/07/03 01:59:45;;;;;;;3.17;1.20;;;;;;;16.33;87.40;98790.75;5049064;28;20589;-51
2022/07/03 02:02:20;;;;;;;1.93;1.27;;;;;;;16.34;87.75;98795.81;5050987;28;20207;-52
2022/07/03 02:04:59;;;;;;;2.97;1.13;;;;;;;16.38;86.82;98791.81;5054116;28;20653;-51
2022/07/03 02:07:37;;;;;;;3.30;1.20;;;;;;;16.40;86.04;98801.34;5052924;28;20199;-52
2022/07/03 02:10:06;;;;;;;3.57;1.23;;;;;;;16.48;86.34;98798.63;5053160;28;20268;-51
2022/07/03 02:12:40;;;;;;;1.50;1.40;;;;;;;16.50;86.00;98793.97;5049364;28;20204;-51
2022/07/03 02:15:11;;;;;;;2.60;1.20;;;;;;;16.52;85.46;98794.63;5052134;28;20198;-51
2022/07/03 02:17:43;;;;;;;3.17;1.20;;;;;;;16.45;85.76;98797.16;5053620;28;20204;-51
2022/07/03 02:20:11;;;;;;;1.80;1.20;;;;;;;16.57;86.71;98797.50;5048035;28;20225;-52
2022/07/03 02:22:42;;;;;;;3.17;1.30;;;;;;;16.55;86.84;98806.59;5052322;28;20288;-51
2022/07/03 02:25:16;;;;;;;2.20;1.10;;;;;;;16.57;86.10;98801.94;5052243;28;20268;-52
2022/07/03 02:27:48;;;;;;;1.40;1.10;;;;;;;16.42;86.06;98804.63;5053406;28;20200;-51
2022/07/03 02:30:17;;;;;;;1.30;1.20;;;;;;;16.35;86.38;98812.47;5042240;28;20227;-53
2022/07/03 02:32:48;;;;;;;1.80;1.20;;;;;;;16.30;87.16;98817.47;5036631;28;20260;-51
2022/07/03 02:35:19;;;;;;;3.53;1.20;;;;;;;16.30;86.84;98818.25;5035988;28;20249;-52
2022/07/03 02:37:53;;;;;;;1.50;1.10;;;;;;;16.17;88.25;98826.81;5036051;28;20189;-51
2022/07/03 02:40:27;;;;;;;1.57;1.00;;;;;;;16.07;88.46;98828.91;5035959;28;20291;-51
2022/07/03 02:43:11;;;;;;;1.70;1.60;;;;;;;16.04;89.04;98821.38;5036258;28;20276;-51
2022/07/03 02:45:44;;;;;;;1.50;1.40;;;;;;;15.91;88.95;98832.50;5030561;28;20222;-51
2022/07/03 02:48:19;;;;;;;4.40;1.20;;;;;;;15.81;89.39;98822.22;5036409;28;20192;-51
2022/07/03 02:50:51;;;;;;;3.37;1.50;;;;;;;15.79;90.67;98824.22;5036154;28;20633;-51
2022/07/03 02:53:29;;;;;;;5.00;1.30;;;;;;;15.77;90.80;98826.22;5035848;28;20224;-51
2022/07/03 02:56:08;;;;;;;1.30;1.20;;;;;;;15.71;91.53;98829.56;5035819;28;20194;-51
2022/07/03 02:58:59;;;;;;;4.13;1.40;;;;;;;15.63;91.95;98825.19;5035960;28;20200;-51
2022/07/03 03:01:39;;;;;;;4.43;1.47;;;;;;;15.58;92.38;98828.34;5025094;28;20247;-51
2022/07/03 03:04:12;;;;;;;2.37;1.50;;;;;;;15.47;92.84;98824.34;5035647;28;20191;-51
2022/07/03 03:06:48;;;;;;;4.27;1.70;;;;;;;15.47;93.06;98826.16;5034711;28;20205;-51
2022/07/03 03:09:21;;;;;;;2.00;1.20;;;;;;;15.41;93.68;98824.22;5035349;28;20278;-51
2022/07/03 03:11:50;;;;;;;1.53;1.30;;;;;;;15.36;93.82;98827.41;5035736;28;20584;-52
2022/07/03 03:14:21;;;;;;;2.30;1.33;;;;;;;15.38;93.78;98832.47;5035769;28;20218;-51
2022/07/03 03:16:53;;;;;;;5.53;1.30;;;;;;;15.41;93.33;98822.44;5035196;28;20230;-52
2022/07/03 03:19:22;;;;;;;1.77;1.33;;;;;;;15.52;91.97;98836.16;5033826;28;20201;-51
2022/07/03 03:21:59;;;;;;;2.63;1.40;;;;;;;15.56;91.70;98835.59;5035207;28;20221;-51
2022/07/03 03:24:28;;;;;;;5.40;1.40;;;;;;;15.57;91.07;98831.97;5028266;28;20245;-52
2022/07/03 03:26:56;;;;;;;4.50;1.20;;;;;;;15.62;90.72;98823.56;5035448;28;20195;-52
2022/07/03 03:29:23;;;;;;;2.07;1.17;;;;;;;15.70;89.61;98831.38;5027212;28;20191;-50
2022/07/03 03:31:52;;;;;;;1.27;1.17;;;;;;;15.73;88.76;98836.28;5035047;28;20300;-51
2022/07/03 03:34:20;;;;;;;3.27;1.30;;;;;;;15.78;88.24;98843.63;5034771;28;20226;-50
2022/07/03 03:36:48;;;;;;;2.00;1.50;;;;;;;15.78;88.00;98839.22;5033583;28;20235;-51
2022/07/03 03:39:15;;;;;;;1.53;1.20;;;;;;;15.96;86.25;98834.63;5035236;28;20216;-51
2022/07/03 03:41:43;;;;;;;2.97;1.20;;;;;;;15.97;86.28;98841.50;5034950;28;20214;-53
2022/07/03 03:44:10;;;;;;;1.30;1.20;;;;;;;16.07;84.46;98847.34;5025376;28;20217;-51
2022/07/03 03:46:38;;;;;;;1.10;1.00;;;;;;;16.18;82.71;98846.06;5035021;28;20220;-52
2022/07/03 03:49:06;;;;;;;2.03;1.00;;;;;;;16.27;82.57;98844.16;5035203;28;20190;-52
2022/07/03 03:51:34;;;;;;;2.30;1.00;;;;;;;16.30;82.11;98851.69;5034993;28;20225;-52
2022/07/03 03:54:19;;;;;;;2.07;0.93;;;;;;;16.36;81.12;98850.97;5035003;28;20239;-51
2022/07/03 03:56:47;;;;;;;2.67;1.00;;;;;;;16.50;80.00;98854.59;5030565;28;20284;-51
2022/07/03 03:59:14;;;;;;;1.40;1.30;;;;;;;16.57;79.74;98857.28;5027984;28;20897;-53
2022/07/03 04:01:42;;;;;;;0.80;0.80;;;;;;;16.52;79.82;98858.66;5034967;28;20330;-51
2022/07/03 04:04:12;;;;;;;2.33;0.90;;;;;;;16.51;79.98;98858.84;5034841;28;20205;-52
2022/07/03 04:06:39;;;;;;;2.40;1.00;;;;;;;16.51;79.62;98861.47;5034859;28;20573;-52
2022/07/03 04:09:07;;;;;;;1.37;1.00;;;;;;;16.43;80.17;98869.50;5034618;28;20208;-51
2022/07/03 04:11:34;;;;;;;1.20;1.00;;;;;;;16.41;81.13;98872.31;5034759;28;20252;-52
2022/07/03 04:14:01;;;;;;;1.87;1.10;;;;;;;16.39;81.36;98876.94;5034544;28;20259;-53
2022/07/03 04:16:29;;;;;;;1.27;1.13;;;;;;;16.38;80.89;98878.75;5034593;28;20296;-51
2022/07/03 04:18:56;;;;;;;4.03;1.03;;;;;;;16.44;80.27;98871.13;5034523;28;20197;-51
2022/07/03 04:21:25;;;;;;;3.83;1.20;;;;;;;16.43;80.09;98880.03;5034787;28;20216;-51
2022/07/03 04:23:52;;;;;;;0.90;0.90;;;;;;;16.47;79.87;98883.94;5034416;28;20190;-51
2022/07/03 04:26:19;;;;;;;2.50;1.20;;;;;;;16.45;80.01;98883.28;5034357;28;20655;-52
2022/07/03 04:28:46;;;;;;;4.17;1.10;;;;;;;16.47;79.45;98871.56;5034791;28;20228;-51
2022/07/03 04:31:13;;;;;;;2.77;0.90;;;;;;;16.52;79.44;98873.66;5034419;28;20229;-51
2022/07/03 04:33:41;;;;;;;1.23;1.00;;;;;;;16.52;78.85;98881.56;5028468;28;20211;-53
2022/07/03 04:36:08;;;;;;;1.50;1.13;;;;;;;16.52;78.09;98882.38;5032540;28;20275;-53
2022/07/03 04:38:37;;;;;;;1.50;1.00;;;;;;;16.56;78.90;98876.72;5034599;28;20267;-51
2022/07/03 04:41:04;;;;;;;1.37;0.87;;;;;;;16.52;79.10;98876.28;5034581;28;20241;-50
2022/07/03 04:43:31;;;;;;;1.17;0.93;;;;;;;16.53;77.92;98873.47;5033231;28;20640;-51
2022/07/03 04:45:59;;;;;;;3.20;1.20;;;;;;;16.54;78.29;98874.28;5035105;28;20269;-51
2022/07/03 04:48:26;;;;;;;1.47;1.17;;;;;;;16.57;77.34;98879.19;5034539;28;20272;-51
2022/07/03 04:50:53;;;;;;;2.07;1.00;;;;;;;16.66;78.03;98874.63;5034600;28;20216;-51
2022/07/03 04:53:21;;;;;;;1.90;0.97;;;;;;;16.65;77.80;98889.63;5034258;28;20267;-52
2022/07/03 04:55:49;;;;;;;3.83;0.90;;;;;;;16.64;78.28;98882.72;5034497;28;20601;-51
2022/07/03 04:58:17;;;;;;;0.93;0.87;;;;;;;16.65;77.71;98883.53;5033432;28;20729;-51
2022/07/03 05:00:44;;;;;;;2.13;1.03;;;;;;;16.68;77.29;98884.00;5032811;28;20222;-52
2022/07/03 05:03:12;;;;;;;0.90;0.90;;;;;;;16.70;78.04;98888.28;5034285;28;20186;-51
2022/07/03 05:05:40;;;;;;;0.93;0.93;;;;;;;16.70;78.53;98878.53;5034086;28;20257;-53
2022/07/03 05:08:08;;;;;;;0.90;0.83;;;;;;;16.66;79.56;98885.16;5034041;28;20276;-51
2022/07/03 05:10:35;;;;;;;2.93;1.10;;;;;;;16.71;77.74;98893.34;5033535;28;20211;-51
2022/07/03 05:13:04;;;;;;;1.03;0.80;;;;;;;16.71;78.02;98900.44;5033639;28;20643;-51
2022/07/03 05:15:31;;;;;;;1.80;1.10;;;;;;;16.67;79.73;98895.53;5033680;28;20222;-51
2022/07/03 05:17:58;;;;;;;1.43;0.97;;;;;;;16.65;80.60;98897.53;5033996;28;20210;-51
2022/07/03 05:20:28;;;;;;;4.20;0.90;;;;;;;16.68;79.79;98902.44;5033502;28;20249;-53
2022/07/03 05:22:56;;;;;;;3.37;0.93;;;;;;;16.75;77.37;98907.00;5032236;28;20241;-50
2022/07/03 05:25:24;;;;;;;5.37;1.60;;;;;;;16.76;79.80;98906.00;5032048;28;20197;-52
2022/07/03 05:27:52;;;;;;;3.13;1.60;;;;;;;16.76;80.21;98903.34;5033693;28;20190;-51
2022/07/03 05:30:22;;;;;;;1.60;1.30;;;;;;;16.76;80.85;98903.34;5033140;28;20220;-51
2022/07/03 05:32:50;;;;;;;3.00;1.50;;;;;;;16.73;81.49;98896.63;5033585;28;20190;-51
2022/07/03 05:35:17;;;;;;;2.70;1.70;;;;;;;16.72;81.93;98897.63;5033421;28;20224;-51
2022/07/03 05:37:45;;;;;;;1.70;1.50;;;;;;;16.71;81.75;98903.09;5033630;28;20278;-51
2022/07/03 05:40:12;;;;;;;2.00;1.40;;;;;;;16.77;81.71;98902.34;5033457;28;20280;-51
2022/07/03 05:42:39;;;;;;;3.33;1.20;;;;;;;16.73;81.97;98901.09;5033301;28;20268;-51
2022/07/03 05:45:08;;;;;;;3.33;1.43;;;;;;;16.97;82.27;98898.13;5031920;28;20185;-51
2022/07/03 05:47:37;;;;;;;1.30;1.20;;;;;;;17.34;80.93;98898.13;5033356;28;20240;-52
2022/07/03 05:50:05;;;;;;;4.30;1.10;;;;;;;17.70;78.91;98899.06;5033714;28;20253;-51
2022/07/03 05:52:32;;;;;;;1.10;1.00;;;;;;;17.87;77.18;98890.88;5033595;28;20191;-51
2022/07/03 05:55:00;;;;;;;0.93;0.80;;;;;;;18.05;75.91;98904.41;5033780;28;20287;-52
2022/07/03 05:57:27;;;;;;;1.10;1.00;;;;;;;18.24;75.49;98908.22;5032532;28;20222;-51
2022/07/03 05:59:54;;;;;;;1.50;0.90;;;;;;;18.48;74.52;98911.41;5033661;28;20211;-51
2022/07/03 06:02:21;;;;;;;1.13;1.03;;;;;;;18.64;72.66;98912.06;5033458;28;20223;-51
2022/07/03 06:04:50;;;;;;;1.43;0.80;;;;;;;18.80;72.75;98918.88;5033691;28;20192;-51
2022/07/03 06:07:17;;;;;;;2.03;1.03;;;;;;;19.01;72.75;98928.53;5033402;28;20216;-51
2022/07/03 06:09:45;;;;;;;2.40;1.30;;;;;;;19.12;71.24;98927.94;5033312;28;20555;-52
2022/07/03 06:12:12;;;;;;;1.70;1.07;;;;;;;19.31;72.16;98923.72;5033477;28;20251;-51
2022/07/03 06:14:39;;;;;;;2.70;1.40;;;;;;;19.48;70.12;98926.00;5033600;28;20208;-51
2022/07/03 06:17:07;;;;;;;1.13;1.00;;;;;;;19.65;70.58;98926.41;5033735;28;20185;-51
2022/07/03 06:19:34;;;;;;;1.40;0.90;;;;;;;19.86;71.13;98930.72;5033716;28;20186;-53
2022/07/03 06:22:03;;;;;;;1.47;1.30;;;;;;;20.00;69.51;98933.38;5033717;28;20284;-51
2022/07/03 06:24:30;;;;;;;3.30;1.10;;;;;;;20.11;67.31;98932.78;5033785;28;20711;-51
2022/07/03 06:26:57;;;;;;;2.90;1.00;;;;;;;20.26;68.53;98934.34;5028872;28;20603;-51
2022/07/03 06:29:25;;;;;;;1.00;0.90;;;;;;;20.41;66.61;98942.91;5032265;28;20235;-51
2022/07/03 06:31:53;;;;;;;1.60;1.03;;;;;;;20.54;62.88;98941.25;5033624;28;20703;-51
2022/07/03 06:34:20;;;;;;;1.47;1.37;;;;;;;20.72;63.92;98949.34;5033462;28;20205;-51
2022/07/03 06:36:47;;;;;;;3.90;1.23;;;;;;;20.83;62.42;98944.44;5029446;28;20673;-51
2022/07/03 06:39:16;;;;;;;2.93;1.20;;;;;;;20.99;62.75;98938.66;5033751;28;20190;-51
2022/07/03 06:41:43;;;;;;;2.13;1.13;;;;;;;21.17;61.92;98945.13;5035915;28;20682;-51
2022/07/03 06:44:10;;;;;;;3.10;1.00;;;;;;;21.38;63.03;98942.13;5036329;28;20200;-51
2022/07/03 06:46:37;;;;;;;1.67;0.90;;;;;;;21.55;62.22;98949.56;5037202;28;20200;-51
2022/07/03 06:49:04;;;;;;;1.40;1.03;;;;;;;21.71;61.61;98952.75;5037332;28;20698;-53
2022/07/03 06:51:33;;;;;;;3.37;1.20;;;;;;;21.81;61.38;98950.44;5036950;28;20213;-52
2022/07/03 06:54:01;;;;;;;5.30;1.10;;;;;;;21.83;61.49;98949.19;5035837;28;20268;-51
2022/07/03 06:56:29;;;;;;;1.10;0.90;;;;;;;21.86;60.79;98953.25;5035956;28;20198;-51
2022/07/03 06:58:57;;;;;;;2.03;1.27;;;;;;;21.99;59.78;98954.19;5036674;28;20235;-51
2022/07/03 07:01:24;;;;;;;1.47;1.10;;;;;;;22.09;59.85;98954.50;5037399;28;20229;-53
2022/07/03 07:03:51;;;;;;;1.80;1.27;;;;;;;22.22;60.52;98950.91;5037586;28;20194;-51
2022/07/03 07:06:18;;;;;;;2.50;1.13;;;;;;;22.32;58.63;98951.22;5037968;28;20208;-51
2022/07/03 07:08:46;;;;;;;1.57;0.90;;;;;;;22.46;60.60;98945.81;5037331;28;20192;-51
2022/07/03 07:11:13;;;;;;;1.40;0.90;;;;;;;22.48;57.86;98947.19;5036574;28;20286;-51
2022/07/03 07:13:42;;;;;;;1.20;1.10;;;;;;;22.54;58.54;98948.16;5036761;28;20199;-53
2022/07/03 07:16:09;;;;;;;2.10;1.20;;;;;;;22.69;55.94;98948.63;5036824;28;20278;-52
2022/07/03 07:18:37;;;;;;;1.30;0.90;;;;;;;22.75;53.64;98948.75;5037225;28;20646;-51
2022/07/03 07:21:04;;;;;;;1.27;0.80;;;;;;;22.83;52.38;98946.59;5036505;28;20256;-51
2022/07/03 07:23:31;;;;;;;1.53;0.90;;;;;;;22.86;52.63;98945.31;5036872;28;20357;-51
2022/07/03 07:26:18;;;;;;;1.37;0.80;;;;;;;23.03;50.52;98950.88;5036901;28;20212;-51
2022/07/03 07:28:47;;;;;;;4.10;0.93;;;;;;;23.06;50.40;98946.94;5036761;28;20704;-51
2022/07/03 07:31:14;;;;;;;2.33;0.80;;;;;;;23.06;50.32;98944.28;5035933;28;20268;-52
2022/07/03 07:33:41;;;;;;;2.90;1.10;;;;;;;23.11;52.14;98944.41;5036326;28;20246;-52
2022/07/03 07:36:08;;;;;;;2.73;0.90;;;;;;;23.28;50.40;98948.09;5035649;28;20216;-51
2022/07/03 07:38:36;;;;;;;3.23;1.17;;;;;;;23.34;51.60;98946.38;5034920;28;20203;-51
2022/07/03 07:41:03;;;;;;;1.13;0.83;;;;;;;23.43;50.15;98946.88;5035636;28;20209;-51
2022/07/03 07:43:31;;;;;;;3.30;1.07;;;;;;;23.40;51.13;98945.47;5036161;28;20258;-52
2022/07/03 07:45:59;;;;;;;1.27;0.80;;;;;;;23.47;50.96;98950.72;5035809;28;20188;-51
2022/07/03 07:48:26;;;;;;;1.00;0.70;;;;;;;23.56;50.81;98948.50;5035786;28;20270;-52
2022/07/03 07:50:53;;;;;;;1.83;1.00;;;;;;;23.51;50.04;98938.56;5035236;28;20266;-51
2022/07/03 07:53:20;;;;;;;2.17;0.90;;;;;;;23.61;48.37;98948.66;5035156;28;20266;-51
2022/07/03 07:55:47;;;;;;;1.43;0.77;;;;;;;23.65;49.88;98957.00;5035512;28;20212;-53
2022/07/03 07:58:15;;;;;;;2.53;0.90;;;;;;;23.73;47.52;98946.03;5034425;28;20195;-52
2022/07/03 08:05:35;;;;;;;1.03;0.70;;;;;;;23.55;48.86;98939.72;5035643;28;20746;-51
2022/07/03 08:06:18;;;;;;;0.90;0.73;;;;;;;23.86;47.83;98947.66;5035811;28;20238;-52
2022/07/03 08:08:46;;;;;;;0.90;0.80;;;;;;;23.80;47.34;98946.72;5035609;28;20199;-51
2022/07/03 08:11:13;;;;;;;2.10;0.83;;;;;;;23.93;47.73;98945.69;5035028;28;20199;-52
2022/07/03 08:13:41;;;;;;;0.97;0.80;;;;;;;23.81;48.03;98943.03;5035375;28;20236;-51
2022/07/03 08:16:08;;;;;;;1.70;0.80;;;;;;;23.94;48.80;98943.81;5035064;28;20234;-52
2022/07/03 08:18:36;;;;;;;1.53;0.70;;;;;;;23.99;47.68;98949.31;5035619;28;20195;-52
2022/07/03 08:21:22;;;;;;;2.33;0.87;;;;;;;24.03;48.94;98951.28;5035921;28;20310;-51
2022/07/03 08:23:49;;;;;;;0.70;0.70;;;;;;;24.09;48.13;98954.06;5035290;28;20196;-51
2022/07/03 08:26:17;;;;;;;1.13;0.70;;;;;;;24.05;48.55;98948.38;5035132;28;20191;-52
2022/07/03 08:28:45;;;;;;;2.10;0.90;;;;;;;24.05;48.88;98940.38;5035132;28;20198;-52
2022/07/03 08:31:12;;;;;;;1.20;0.70;;;;;;;24.13;49.98;98949.91;5034768;28;20201;-51
2022/07/03 08:33:40;;;;;;;1.43;0.90;;;;;;;24.13;49.21;98945.38;5035012;28;20199;-53
2022/07/03 08:36:07;;;;;;;0.80;0.80;;;;;;;24.14;47.58;98946.19;5034583;28;20607;-52
2022/07/03 08:38:35;;;;;;;2.53;0.83;;;;;;;24.21;48.31;98949.56;5034455;28;20412;-51
2022/07/03 08:41:05;;;;;;;4.23;0.70;;;;;;;24.21;48.58;98951.41;5031049;28;20216;-53
2022/07/03 08:43:33;;;;;;;1.13;0.80;;;;;;;24.24;48.57;98946.44;5025150;28;20246;-53
2022/07/03 08:46:02;;;;;;;1.40;0.73;;;;;;;24.36;47.37;98954.41;5034012;28;20204;-51
2022/07/03 08:48:32;;;;;;;3.50;0.80;;;;;;;24.32;47.42;98956.75;5033846;28;20631;-52
2022/07/03 08:51:02;;;;;;;3.03;1.00;;;;;;;24.49;46.47;98958.66;5032127;28;20222;-51
2022/07/03 08:53:30;;;;;;;2.17;0.60;;;;;;;24.42;46.45;98952.66;5033782;28;20220;-53
2022/07/03 08:55:58;;;;;;;1.50;0.70;;;;;;;24.49;45.91;98949.88;5033586;28;20263;-53
2022/07/03 08:58:31;;;;;;;1.43;0.80;;;;;;;24.53;45.18;98954.50;5033757;28;20188;-52
2022/07/03 09:00:58;;;;;;;1.77;0.80;;;;;;;24.51;44.33;98951.25;5033394;28;20224;-52
2022/07/03 09:03:44;;;;;;;1.80;0.70;;;;;;;24.65;44.65;98951.00;5034211;28;20203;-52
2022/07/03 09:06:13;;;;;;;1.97;0.73;;;;;;;24.61;44.50;98953.34;5034172;28;20611;-51
2022/07/03 09:08:42;;;;;;;1.20;0.70;;;;;;;24.71;44.85;98956.22;5034700;28;20277;-52
2022/07/03 09:11:10;;;;;;;1.27;0.70;;;;;;;24.60;43.56;98955.19;5034593;28;20628;-52
2022/07/03 09:13:38;;;;;;;1.57;0.70;;;;;;;24.73;44.61;98956.81;5034508;28;20267;-52
2022/07/03 09:16:06;;;;;;;3.27;0.90;;;;;;;24.69;44.00;98949.47;5034435;28;20197;-53
2022/07/03 09:18:41;;;;;;;2.23;0.90;;;;;;;24.84;44.68;98949.03;5034155;28;20220;-52
2022/07/03 09:21:09;;;;;;;2.03;0.70;;;;;;;25.02;43.75;98958.72;5033057;28;20256;-53
2022/07/03 09:23:40;;;;;;;1.60;0.90;;;;;;;25.09;45.21;98950.53;5034743;28;20231;-51
2022/07/03 09:26:14;;;;;;;1.77;0.93;;;;;;;25.13;43.41;98954.34;5033815;28;20234;-51
2022/07/03 09:28:44;;;;;;;3.08;0.75;;;;;;;24.95;42.48;98945.47;5033819;28;20190;-51
2022/07/03 09:31:12;;;;;;;4.13;0.90;;;;;;;24.94;43.60;98951.06;5034295;28;20703;-51
2022/07/03 09:33:54;;;;;;;2.97;0.90;;;;;;;24.98;43.34;98946.88;5034249;28;20187;-51
2022/07/03 09:36:23;;;;;;;1.33;0.60;;;;;;;25.12;42.72;98956.22;5034255;28;20213;-51
2022/07/03 09:38:52;;;;;;;3.93;0.80;;;;;;;24.96;40.71;98947.09;5034288;28;20613;-51
2022/07/03 09:41:19;;;;;;;1.30;0.70;;;;;;;25.13;40.73;98941.81;5033926;28;20725;-52
2022/07/03 09:43:47;;;;;;;5.27;0.70;;;;;;;25.36;41.33;98934.75;5033646;28;20726;-52
2022/07/03 09:46:14;;;;;;;4.07;0.70;;;;;;;25.26;41.36;98943.38;5033895;28;20210;-52
2022/07/03 09:48:43;;;;;;;1.90;0.90;;;;;;;25.25;42.12;98943.63;5032354;28;20259;-51
2022/07/03 09:51:16;;;;;;;1.67;0.70;;;;;;;25.48;41.19;98945.41;5049229;28;20211;-52
2022/07/03 09:53:53;;;;;;;2.03;0.70;;;;;;;25.39;37.48;98944.13;5052823;28;20253;-51
2022/07/03 09:56:22;;;;;;;0.57;0.50;;;;;;;25.28;38.48;98951.97;5053196;28;20209;-51
2022/07/03 09:59:01;;;;;;;2.93;0.70;;;;;;;25.46;38.84;98936.81;5053202;28;20220;-51
2022/07/03 10:01:28;;;;;;;2.17;0.75;;;;;;;25.45;39.07;98933.31;5048352;28;20213;-54
2022/07/03 10:04:11;;;;;;;1.53;0.80;;;;;;;25.47;39.61;98939.22;5053135;28;20272;-52
2022/07/03 10:06:48;;;;;;;1.83;0.67;;;;;;;25.43;41.21;98929.25;5049468;28;20190;-54
2022/07/03 10:09:18;;;;;;;1.20;0.57;;;;;;;25.56;40.22;98928.13;5050325;28;20551;-53
2022/07/03 10:11:45;;;;;;;3.67;0.73;;;;;;;25.55;40.87;98932.69;5047045;28;20208;-53
2022/07/03 10:14:15;;;;;;;1.85;1.00;;;;;;;25.68;41.24;98930.75;5052245;28;20224;-52
2022/07/03 10:16:42;;;;;;;3.17;0.70;;;;;;;25.63;39.76;98934.16;5056194;28;20218;-53
2022/07/03 10:19:14;;;;;;;1.73;0.70;;;;;;;25.73;39.62;98944.22;5055839;28;20185;-52
2022/07/03 10:21:44;;;;;;;2.00;0.73;;;;;;;25.78;39.38;98936.28;5056028;28;20207;-51
2022/07/03 10:24:13;;;;;;;0.90;0.70;;;;;;;25.83;39.19;98928.34;5056005;28;20548;-53
2022/07/03 10:26:42;;;;;;;1.73;0.63;;;;;;;25.89;38.66;98921.19;5055706;28;20196;-51
2022/07/03 10:29:15;;;;;;;1.38;0.60;;;;;;;25.93;38.90;98912.44;5055825;28;20277;-53
2022/07/03 10:32:00;;;;;;;1.53;0.70;;;;;;;25.98;40.78;98918.88;5054876;28;20224;-52
2022/07/03 10:34:28;;;;;;;4.30;0.70;;;;;;;26.09;38.99;98918.00;5055376;28;20212;-53
2022/07/03 10:37:00;;;;;;;1.83;0.80;;;;;;;25.99;39.48;98917.84;5055544;28;20475;-54
2022/07/03 10:39:37;;;;;;;2.45;0.70;;;;;;;26.07;39.78;98923.59;5050299;28;20199;-53
2022/07/03 10:45:06;;;;;;;1.30;0.50;;;;;;;26.31;38.66;98923.41;5041619;28;20263;-50
2022/07/03 10:47:43;;;;;;;1.40;0.60;;;;;;;26.34;37.49;98927.47;5028898;28;20221;-50
2022/07/03 10:50:12;;;;;;;1.70;0.63;;;;;;;26.45;36.58;98920.38;5034014;28;20201;-50
2022/07/03 10:52:40;;;;;;;1.73;0.90;;;;;;;26.45;37.17;98921.19;5035347;28;20841;-50
2022/07/03 10:55:08;;;;;;;1.92;0.75;;;;;;;26.34;36.56;98914.06;5035125;28;20257;-49
2022/07/03 10:57:39;;;;;;;3.37;1.10;;;;;;;26.38;37.81;98917.88;5035366;28;20188;-50
2022/07/03 11:00:17;;;;;;;2.37;0.60;;;;;;;26.27;37.45;98911.59;5035523;28;20214;-53
2022/07/03 11:02:47;;;;;;;2.03;0.80;;;;;;;26.39;37.54;98908.78;5034675;28;20204;-53
2022/07/03 11:05:37;;;;;;;2.20;0.63;;;;;;;26.30;37.62;98904.91;5035998;28;20195;-52
2022/07/03 11:08:15;;;;;;;5.50;0.70;;;;;;;26.42;35.32;98899.47;5035969;28;20830;-50
2022/07/03 11:10:44;;;;;;;3.90;0.75;;;;;;;26.45;35.33;98898.97;5035624;28;20209;-50
2022/07/03 11:13:21;;;;;;;0.33;0.33;;;;;;;26.55;35.74;98896.41;5035734;28;20195;-51
2022/07/03 11:15:52;;;;;;;8.57;4.10;;;;;;;26.51;37.81;98897.94;5035678;28;20280;-49
2022/07/03 11:18:31;;;;;;;3.30;2.13;;;;;;;26.53;35.74;98899.34;5035356;28;20245;-52
2022/07/03 11:21:32;;;;;;;2.35;1.42;;;;;;;26.60;36.33;98885.75;5035225;28;20367;-50
2022/07/03 11:24:21;;;;;;;2.47;1.20;;;;;;;26.85;36.80;98887.13;5033900;28;20202;-50
2022/07/03 11:27:29;;;;;;;1.80;0.90;;;;;;;27.06;34.99;98890.00;5033655;28;20196;-50
2022/07/03 11:30:00;;;;;;;2.15;1.15;;;;;;;27.16;36.03;98889.28;5025884;28;20207;-52
2022/07/03 11:32:57;;;;;;;1.40;0.60;;;;;;;27.17;35.00;98901.63;5030284;28;20222;-51
2022/07/03 11:35:53;;;;;;;1.55;0.90;;;;;;;27.28;36.97;98894.50;5031763;28;20234;-51
2022/07/03 11:38:27;;;;;;;0.93;0.50;;;;;;;27.48;33.24;98891.19;5032797;28;20587;-51
2022/07/03 11:40:57;;;;;;;1.15;0.70;;;;;;;27.40;34.77;98884.44;5032706;28;20281;-53
2022/07/03 11:43:24;;;;;;;2.85;0.82;;;;;;;27.37;35.09;98877.69;5024669;28;20228;-50
2022/07/03 11:45:53;;;;;;;3.10;0.70;;;;;;;27.56;33.89;98880.00;5033624;28;20229;-51
2022/07/03 11:48:22;;;;;;;1.63;0.70;;;;;;;27.59;33.48;98871.47;5033797;28;20215;-51
2022/07/03 11:50:49;;;;;;;1.45;0.70;;;;;;;27.78;33.02;98871.84;5033764;28;20280;-50
2022/07/03 11:53:24;;;;;;;1.17;0.40;;;;;;;27.75;33.14;98869.69;5033971;28;20198;-50
2022/07/03 11:55:53;;;;;;;1.10;0.50;;;;;;;27.94;34.43;98872.75;5032423;28;20232;-49